Impacts TAF Board INFO
FOR SITUATIONAL AWARENESS. NOT TO BE USED FOR FLIGHT PLANNING PURPOSES.
IDs:

KSEA - Seattle-Tacoma Intl, WA, US

Issued at 2337 UTC 19 Feb 2018
Updated at 0120 UTC 20 Feb 2018
Potential Impact None Slight Moderate High
Time<<20/14Z 20/15Z 20/16Z 20/17Z 20/18Z 20/19Z 20/20Z 20/21Z 20/22Z 20/23Z 21/00Z 21/01Z 21/02Z>>
Type PRVL PRVL PRVL PRVL PRVL PRVL PRVL PRVL PRVL PRVL PRVL PRVL PRVL
VIS >6 >6 >6 >6 >6 >6 >6 >6 >6 >6 >6 >6 >6
CIG -- -- -- -- -- -- -- -- -- -- 50 50 50
Cover SCT SCT SCT SCT SCT SCT SCT SCT SCT SCT OVC OVC OVC
FltCat VFR VFR VFR VFR VFR VFR VFR VFR VFR VFR VFR VFR VFR
WX -- -- -- -- -- -- -- -- -- -- -- -- --
WDir 120 120 120 120 120 120 120 120 120 120 360 360 360
WSpd 6 6 6 6 6 6 6 6 6 6 6 6 6
WGst -- -- -- -- -- -- -- -- -- -- -- -- --

Raw TAF
KSEA 192337Z 2000/2106 32010KT P6SM SCT250
  FM200300 01005KT P6SM BKN250
  FM200600 12006KT P6SM SCT250
  FM210000 36006KT P6SM OVC050


METAR Board
Radar Display
Forecast Discussion

FOR SITUATIONAL AWARENESS. NOT TO BE USED FOR FLIGHT PLANNING PURPOSES.